createdAt,value
2023-05-21T05:31:33.170Z,56.6069
2023-05-21T05:32:35.139Z,55.8249
2023-05-21T05:33:37.118Z,57.5525
2023-05-21T05:34:39.171Z,56.1638
2023-05-21T05:35:41.235Z,54.7424
2023-05-21T05:36:43.274Z,53.6667
2023-05-21T05:37:45.313Z,52.9857
2023-05-21T05:38:47.380Z,52.5399
2023-05-21T05:39:49.383Z,52.2555
2023-05-21T05:40:51.430Z,51.9907
2023-05-21T05:41:53.511Z,51.8166
2023-05-21T05:42:55.553Z,51.5151
2023-05-21T05:43:57.588Z,51.3603
2023-05-21T05:44:59.632Z,51.3734
2023-05-21T05:46:01.703Z,51.3120
2023-05-21T05:47:03.709Z,51.3746
2023-05-21T05:48:05.766Z,51.4351
2023-05-21T05:49:07.806Z,51.4098
2023-05-21T05:50:09.867Z,51.3632
2023-05-21T05:51:11.920Z,51.4465
2023-05-21T05:52:13.939Z,51.4303
2023-05-21T05:53:15.976Z,51.3316
2023-05-21T05:54:18.022Z,51.2522
2023-05-21T05:55:20.098Z,51.3037
2023-05-21T05:56:22.138Z,51.2234
2023-05-21T05:57:24.155Z,51.2166
2023-05-21T05:58:26.231Z,51.1125
2023-05-21T05:59:28.288Z,51.1576
2023-05-21T06:00:30.350Z,51.1155
2023-05-21T06:01:32.370Z,51.0505
2023-05-21T06:02:34.467Z,51.0925
2023-05-21T06:03:36.679Z,51.0115
2023-05-21T06:04:38.489Z,51.0083
2023-05-21T06:05:40.780Z,50.9370
2023-05-21T06:06:42.591Z,50.9364
2023-05-21T06:07:44.608Z,50.9274
2023-05-21T06:08:46.666Z,50.8948
2023-05-21T06:09:48.715Z,50.8234
2023-05-21T06:10:50.753Z,50.8230
2023-05-21T06:11:52.793Z,50.9250
2023-05-21T06:12:54.851Z,50.7940
2023-05-21T06:13:56.884Z,50.8507
2023-05-21T06:14:58.928Z,50.8672
2023-05-21T06:16:01.043Z,51.0051
2023-05-21T06:17:03.036Z,50.8871
2023-05-21T06:18:05.071Z,50.8986
2023-05-21T06:19:07.128Z,50.9583
2023-05-21T06:20:09.129Z,50.8618
2023-05-21T06:21:11.199Z,50.9967
2023-05-21T06:22:13.262Z,50.9959
2023-05-21T06:23:15.285Z,51.0029
2023-05-21T06:24:17.312Z,51.0340
2023-05-21T06:25:19.375Z,51.0409
2023-05-21T06:26:21.414Z,50.9858
2023-05-21T06:27:23.455Z,51.0019
2023-05-21T06:28:25.490Z,51.0372
2023-05-21T06:29:27.586Z,51.0529
2023-05-21T06:30:29.608Z,51.0739
2023-05-21T06:31:31.630Z,51.1362
2023-05-21T06:32:33.821Z,50.9949
2023-05-21T06:33:35.844Z,50.9665
2023-05-21T06:34:37.793Z,51.0005
2023-05-21T06:35:39.820Z,51.0797
2023-05-21T06:36:41.884Z,51.1509
2023-05-21T06:37:43.939Z,51.2046
2023-05-21T06:38:45.970Z,51.2991
2023-05-21T06:39:48.035Z,51.4457
2023-05-21T06:40:50.049Z,51.3760
2023-05-21T06:41:52.084Z,51.4357
2023-05-21T06:42:54.149Z,51.5512
2023-05-21T06:43:56.188Z,51.7145
2023-05-21T06:44:58.239Z,51.7147
2023-05-21T06:46:00.298Z,51.7586
2023-05-21T06:47:02.305Z,51.7519
2023-05-21T06:48:04.401Z,51.8192
2023-05-21T06:49:06.426Z,51.8187
2023-05-21T06:50:08.461Z,51.7888
2023-05-21T06:51:10.526Z,51.8138
2023-05-21T06:52:12.646Z,51.7521
2023-05-21T06:53:14.580Z,51.7705
2023-05-21T06:54:16.677Z,51.7545
2023-05-21T06:55:18.701Z,51.7482
2023-05-21T06:56:20.735Z,51.6487
2023-05-21T06:57:22.774Z,51.6958
2023-05-21T06:58:24.805Z,51.6749
2023-05-21T06:59:26.869Z,51.6971
2023-05-21T07:00:28.918Z,51.6544
2023-05-21T07:01:31.024Z,51.6636
2023-05-21T07:02:33.181Z,51.7055
2023-05-21T07:03:35.090Z,51.5001
2023-05-21T07:04:37.103Z,51.4002
2023-05-21T07:05:39.643Z,51.2141
2023-05-21T07:06:41.181Z,51.4916
2023-05-21T07:07:43.224Z,51.4762
2023-05-21T07:08:45.295Z,51.2770
2023-05-21T07:09:47.344Z,51.2640
2023-05-21T07:10:49.388Z,51.2119
2023-05-21T07:11:59.002Z,51.2085
2023-05-21T07:12:54.019Z,50.9577
2023-05-21T07:13:55.588Z,51.0056
2023-05-21T07:14:59.371Z,51.1174
2023-05-21T07:15:59.599Z,51.1463
2023-05-21T07:17:01.744Z,51.0546
2023-05-21T07:18:04.519Z,50.8215
2023-05-21T07:19:05.913Z,50.6566
2023-05-21T07:20:07.769Z,50.9878
2023-05-21T07:21:09.822Z,50.8936
2023-05-21T07:22:11.906Z,50.9896
2023-05-21T07:23:13.930Z,50.8674
2023-05-21T07:24:15.982Z,50.9183
2023-05-21T07:25:18.047Z,50.7651
2023-05-21T07:26:20.045Z,50.5608
2023-05-21T07:27:25.738Z,50.4490
2023-05-21T07:28:24.174Z,50.6545
2023-05-21T07:29:26.224Z,50.6553
2023-05-21T07:30:28.252Z,50.8689
2023-05-21T07:31:30.371Z,50.8303
2023-05-21T07:32:32.357Z,51.1843
2023-05-21T07:33:34.408Z,51.1264
2023-05-21T07:34:36.444Z,51.2128
2023-05-21T07:35:38.602Z,51.0685
2023-05-21T07:36:40.567Z,51.1428
2023-05-21T07:37:42.578Z,50.9683
2023-05-21T07:38:44.620Z,50.8189
2023-05-21T07:39:46.666Z,50.9000
2023-05-21T07:40:48.707Z,51.0058
2023-05-21T07:41:50.780Z,50.8308
2023-05-21T07:42:52.836Z,50.8059
2023-05-21T07:43:54.868Z,50.7795
2023-05-21T07:44:56.918Z,50.6985
2023-05-21T07:45:58.983Z,50.6854
2023-05-21T07:47:01.011Z,50.7315
2023-05-21T07:48:03.138Z,50.8544
2023-05-21T07:49:05.120Z,50.9975
2023-05-21T07:50:07.134Z,50.7437
2023-05-21T07:51:09.210Z,50.9007
2023-05-21T07:52:11.251Z,50.9722
2023-05-21T07:53:13.336Z,51.4633
2023-05-21T07:54:15.404Z,51.4969
2023-05-21T07:55:18.034Z,51.3645
2023-05-21T07:56:19.410Z,51.3195
2023-05-21T07:57:21.500Z,51.3443
2023-05-21T07:58:23.517Z,51.4569
2023-05-21T07:59:26.586Z,51.5465
2023-05-21T08:00:27.596Z,51.3196
2023-05-21T08:01:29.662Z,51.2951
2023-05-21T08:02:31.792Z,51.5267
2023-05-21T08:03:33.920Z,51.5303
2023-05-21T08:04:37.478Z,51.5958
2023-05-21T08:05:38.147Z,51.8061
2023-05-21T08:06:40.228Z,52.0010
2023-05-21T08:07:41.918Z,52.0159
2023-05-21T08:08:44.000Z,52.1636
2023-05-21T08:09:46.052Z,51.9027
2023-05-21T08:10:48.089Z,51.8427
2023-05-21T08:11:50.222Z,51.9077
2023-05-21T08:12:52.194Z,51.9446
2023-05-21T08:13:54.250Z,51.9413
2023-05-21T08:14:56.261Z,52.0786
2023-05-21T08:15:58.339Z,52.0593
2023-05-21T08:17:00.381Z,52.2072
2023-05-21T08:18:02.535Z,52.3265
2023-05-21T08:19:04.502Z,52.5733
2023-05-21T08:20:06.512Z,52.6219
2023-05-21T08:21:08.579Z,52.5142
2023-05-21T08:22:10.655Z,52.8034
2023-05-21T08:23:12.721Z,53.0408
2023-05-21T08:24:14.819Z,53.0350
2023-05-21T08:25:16.734Z,52.8705
2023-05-21T08:26:18.821Z,52.9993
2023-05-21T08:27:20.830Z,52.5902
2023-05-21T08:28:22.900Z,52.5413
2023-05-21T08:29:24.924Z,52.5426
2023-05-21T08:30:27.146Z,52.4974
2023-05-21T08:31:29.204Z,53.1076
2023-05-21T08:32:31.124Z,54.1067
2023-05-21T08:33:33.138Z,54.4530
2023-05-21T08:34:36.685Z,54.4896
2023-05-21T08:35:37.382Z,54.2109
2023-05-21T08:36:39.359Z,54.2822
2023-05-21T08:37:41.339Z,54.2235
2023-05-21T08:38:43.362Z,53.9140
2023-05-21T08:39:45.506Z,53.8597
2023-05-21T08:40:47.456Z,53.9101
2023-05-21T08:41:49.770Z,54.1000
2023-05-21T08:42:51.594Z,54.4065
2023-05-21T08:43:54.952Z,54.3787
2023-05-21T08:44:55.727Z,54.4489
2023-05-21T08:45:57.711Z,54.0722
2023-05-21T08:46:59.759Z,54.0876
2023-05-21T08:48:01.835Z,53.8523
2023-05-21T08:49:03.868Z,53.8297
2023-05-21T08:50:05.871Z,54.1355
2023-05-21T08:51:07.937Z,54.1635
2023-05-21T08:52:09.985Z,54.0134
2023-05-21T08:53:23.417Z,54.0101
2023-05-21T08:54:14.097Z,53.7515
2023-05-21T08:55:16.122Z,53.7145
2023-05-21T08:56:18.285Z,53.5775
2023-05-21T08:57:20.256Z,53.8543
2023-05-21T08:58:22.285Z,53.7507
2023-05-21T08:59:24.342Z,53.4970
2023-05-21T09:00:26.373Z,53.4073
2023-05-21T09:01:28.498Z,53.6507
2023-05-21T09:02:30.535Z,53.6569
2023-05-21T09:03:32.579Z,53.8377
2023-05-21T09:04:34.739Z,53.6411
2023-05-21T09:05:36.797Z,53.5312
2023-05-21T09:06:38.741Z,53.6744
2023-05-21T09:07:40.745Z,53.4870
2023-05-21T09:08:42.780Z,53.3026
2023-05-21T09:09:44.823Z,53.2602
2023-05-21T09:10:46.904Z,53.4512
2023-05-21T09:11:48.927Z,53.7572
2023-05-21T09:12:52.019Z,53.6863
2023-05-21T09:13:53.032Z,53.3189
2023-05-21T09:14:55.044Z,53.6506
2023-05-21T09:15:57.099Z,53.8911
2023-05-21T09:16:59.428Z,54.2282
2023-05-21T09:18:01.237Z,54.1848
2023-05-21T09:19:04.603Z,54.2239
2023-05-21T09:20:05.350Z,54.2756
2023-05-21T09:21:07.377Z,54.1559
2023-05-21T09:22:09.415Z,54.0477
2023-05-21T09:23:11.535Z,54.1185
2023-05-21T09:24:13.518Z,53.9960
2023-05-21T09:25:15.675Z,53.8573
2023-05-21T09:26:17.614Z,53.8696
2023-05-21T09:27:19.668Z,53.9156
2023-05-21T09:28:21.756Z,53.4952
2023-05-21T09:29:23.737Z,53.0892
2023-05-21T09:30:28.814Z,53.5143
2023-05-21T09:31:27.902Z,53.2522
2023-05-21T09:32:29.964Z,53.0011
2023-05-21T09:33:32.010Z,53.5533
2023-05-21T09:34:34.060Z,53.3270
2023-05-21T09:35:37.503Z,53.1567
2023-05-21T09:36:38.192Z,52.7855
2023-05-21T09:37:40.231Z,52.1233
2023-05-21T09:38:42.283Z,51.9889
2023-05-21T09:39:44.303Z,52.3786
2023-05-21T09:40:46.396Z,52.4976
2023-05-21T09:41:48.417Z,53.1989
2023-05-21T09:42:50.488Z,52.9857
2023-05-21T09:43:52.499Z,52.8748
2023-05-21T09:44:54.536Z,52.7651
2023-05-21T09:45:57.750Z,52.6630
2023-05-21T09:46:58.843Z,52.4824
2023-05-21T09:48:00.802Z,52.6451
2023-05-21T09:49:02.746Z,53.1702
2023-05-21T09:50:04.821Z,53.1995
2023-05-21T09:51:06.816Z,53.1438
2023-05-21T09:52:08.870Z,52.8510
2023-05-21T09:53:10.968Z,52.6921
2023-05-21T09:54:12.986Z,53.0060
2023-05-21T09:55:15.019Z,53.2401
2023-05-21T09:56:17.105Z,53.2312
2023-05-21T09:57:19.131Z,53.0604
2023-05-21T09:58:21.212Z,52.8479
2023-05-21T09:59:23.799Z,52.6605
2023-05-21T10:00:25.257Z,52.6328
2023-05-21T10:01:27.374Z,52.3954
2023-05-21T10:02:29.428Z,52.3374
2023-05-21T10:03:31.434Z,52.3918
2023-05-21T10:04:33.469Z,52.5865
2023-05-21T10:05:35.521Z,52.6270
2023-05-21T10:06:37.566Z,52.7109
2023-05-21T10:07:39.595Z,53.0817
2023-05-21T10:08:41.655Z,53.2197
2023-05-21T10:09:43.714Z,52.7726
2023-05-21T10:10:45.736Z,52.3923
2023-05-21T10:11:47.801Z,52.0836
2023-05-21T10:12:49.879Z,52.0709
2023-05-21T10:13:51.882Z,52.1220
2023-05-21T10:14:53.890Z,52.7231
2023-05-21T10:15:55.950Z,53.0648
2023-05-21T10:16:58.083Z,53.0986
2023-05-21T10:18:00.080Z,53.1884
2023-05-21T10:19:02.140Z,53.2919
2023-05-21T10:20:04.135Z,53.5582
2023-05-21T10:21:06.161Z,53.4795
2023-05-21T10:22:08.209Z,53.2463
2023-05-21T10:23:10.259Z,52.5639
2023-05-21T10:24:12.312Z,52.7230
2023-05-21T10:25:14.380Z,52.4974
2023-05-21T10:26:16.394Z,52.7033
2023-05-21T10:27:18.426Z,52.5017
2023-05-21T10:28:20.518Z,52.5644
2023-05-21T10:29:22.529Z,52.7456
2023-05-21T10:30:24.559Z,52.7993
2023-05-21T10:31:26.644Z,52.7681
2023-05-21T10:32:28.966Z,52.9297
2023-05-21T10:33:30.787Z,53.0556
2023-05-21T10:34:32.738Z,52.8568
2023-05-21T10:36:36.858Z,54.0129
2023-05-21T10:37:38.905Z,53.6125
2023-05-21T10:38:41.180Z,53.9760
2023-05-21T10:39:42.973Z,54.1651
2023-05-21T10:40:45.013Z,54.5121
2023-05-21T10:41:47.163Z,54.0230
2023-05-21T10:42:49.135Z,53.9642
2023-05-21T10:43:51.202Z,53.7622
2023-05-21T10:44:53.212Z,53.5769
2023-05-21T10:45:55.361Z,53.2024
2023-05-21T10:46:57.275Z,53.1059
2023-05-21T10:47:59.318Z,53.0718
2023-05-21T10:49:01.367Z,52.8302
2023-05-21T10:50:03.415Z,52.7124
2023-05-21T10:51:05.507Z,52.3304
2023-05-21T10:52:07.508Z,52.3927
2023-05-21T10:53:10.925Z,52.2440
2023-05-21T10:54:11.571Z,51.9473
2023-05-21T10:55:13.825Z,52.1618
2023-05-21T10:56:15.729Z,52.2149
2023-05-21T10:57:17.731Z,51.9091
2023-05-21T10:58:19.748Z,51.9281
2023-05-21T10:59:21.819Z,51.8906
2023-05-21T11:00:23.853Z,51.8054
2023-05-21T11:01:26.042Z,51.7114
2023-05-21T11:02:28.003Z,51.3424
2023-05-21T11:03:30.180Z,51.1491
2023-05-21T11:04:32.023Z,51.3382
2023-05-21T11:05:34.079Z,51.1655
2023-05-21T11:06:36.128Z,50.8722
2023-05-21T11:07:38.174Z,50.9523
2023-05-21T11:08:40.217Z,51.0351
2023-05-21T11:09:42.273Z,50.8223
2023-05-21T11:10:44.288Z,50.6480
2023-05-21T11:11:46.475Z,50.7730
2023-05-21T11:12:48.382Z,51.0556
2023-05-21T11:13:50.439Z,51.0470
2023-05-21T11:14:52.445Z,50.6696
2023-05-21T11:15:54.568Z,50.8044
2023-05-21T11:16:56.578Z,51.0107
2023-05-21T11:17:58.676Z,50.1960
2023-05-21T11:19:00.902Z,50.0801
2023-05-21T11:20:02.682Z,49.7368
2023-05-21T11:21:04.747Z,49.7044
2023-05-21T11:22:06.864Z,49.8095
2023-05-21T11:23:08.824Z,50.0955
2023-05-21T11:24:10.869Z,50.4019
2023-05-21T11:25:12.909Z,49.9511
2023-05-21T11:26:14.943Z,49.4780
2023-05-21T11:27:17.118Z,49.1321
2023-05-21T11:28:19.056Z,49.1138
2023-05-21T11:29:21.113Z,49.0320
2023-05-21T11:30:23.130Z,49.2724
2023-05-21T11:31:25.219Z,48.9712
2023-05-21T11:32:27.218Z,48.9275
2023-05-21T11:33:29.375Z,48.6735
2023-05-21T11:34:31.296Z,49.0252
2023-05-21T11:35:33.346Z,48.9549
2023-05-21T11:36:36.084Z,48.5549
2023-05-21T11:37:37.404Z,48.7439
2023-05-21T11:38:39.457Z,48.4890
2023-05-21T11:39:41.600Z,48.9199
2023-05-21T11:40:43.572Z,49.2038
2023-05-21T11:41:45.610Z,49.0758
2023-05-21T11:42:47.636Z,48.9184
2023-05-21T11:43:49.681Z,48.4855
2023-05-21T11:44:51.716Z,47.7935
2023-05-21T11:45:53.852Z,47.6979
2023-05-21T11:46:55.952Z,47.8700
2023-05-21T11:47:57.917Z,47.9127
2023-05-21T11:48:59.915Z,47.9826
2023-05-21T11:50:01.953Z,47.7705
2023-05-21T11:51:04.012Z,47.8279
2023-05-21T11:52:06.064Z,48.1949
2023-05-21T11:53:08.127Z,48.0485
2023-05-21T11:54:10.218Z,47.9311
2023-05-21T11:55:12.462Z,48.0000
2023-05-21T11:56:14.235Z,47.6597
2023-05-21T11:57:16.322Z,47.0913
2023-05-21T11:58:18.354Z,46.6852
2023-05-21T11:59:20.942Z,46.1041
2023-05-21T12:00:22.484Z,45.9794
2023-05-21T12:01:24.455Z,46.1068
2023-05-21T12:02:26.555Z,46.3291
2023-05-21T12:03:28.595Z,46.7918
2023-05-21T12:04:30.575Z,46.4733
2023-05-21T12:05:32.698Z,46.7318
2023-05-21T12:06:34.695Z,46.6384
2023-05-21T12:07:36.755Z,46.3564
2023-05-21T12:08:38.753Z,46.5647
2023-05-21T12:09:40.895Z,46.1211
2023-05-21T12:10:44.427Z,45.8979
2023-05-21T12:11:44.907Z,45.7032
2023-05-21T12:12:55.610Z,45.5084
2023-05-21T12:13:49.010Z,45.5492
2023-05-21T12:14:51.017Z,45.4348
2023-05-21T12:15:53.069Z,45.4954
2023-05-21T12:16:55.163Z,45.4465
2023-05-21T12:17:57.396Z,45.6558
2023-05-21T12:18:59.250Z,45.9467
2023-05-21T12:20:01.290Z,46.0306
2023-05-21T12:21:03.349Z,45.9452
2023-05-21T12:22:05.368Z,45.7778
2023-05-21T12:23:07.418Z,45.8406
2023-05-21T12:24:09.547Z,46.3083
2023-05-21T12:25:11.535Z,45.9006
2023-05-21T12:26:13.586Z,45.9167
2023-05-21T12:27:15.735Z,46.0518
2023-05-21T12:28:17.687Z,45.8971
2023-05-21T12:29:19.702Z,46.2051
2023-05-21T12:30:21.802Z,46.0706
2023-05-21T12:31:23.846Z,45.9028
2023-05-21T12:32:25.918Z,45.6214
2023-05-21T12:33:27.894Z,45.6610
2023-05-21T12:34:29.943Z,45.7471
2023-05-21T12:35:32.082Z,46.1022
2023-05-21T12:36:34.071Z,46.5271
2023-05-21T12:37:36.111Z,46.6233
2023-05-21T12:38:38.126Z,46.4908
2023-05-21T12:39:40.175Z,46.2317
2023-05-21T12:40:42.234Z,46.3243
2023-05-21T12:41:44.281Z,46.5309
2023-05-21T12:42:46.325Z,46.3616
2023-05-21T12:43:48.371Z,46.3367
2023-05-21T12:44:50.404Z,46.2746
2023-05-21T12:45:52.503Z,46.4331
2023-05-21T12:46:54.513Z,46.3442
2023-05-21T12:47:56.753Z,46.3073
2023-05-21T12:48:58.589Z,46.6014
2023-05-21T12:50:00.641Z,46.6419
2023-05-21T12:51:02.704Z,46.6226
2023-05-21T12:52:04.761Z,47.3450
2023-05-21T12:53:06.830Z,47.7445
2023-05-21T12:54:08.832Z,47.6479
2023-05-21T12:55:10.895Z,47.7967
2023-05-21T12:56:12.917Z,48.0002
2023-05-21T12:57:14.980Z,48.0905
2023-05-21T12:58:17.002Z,48.7102
2023-05-21T12:59:19.055Z,49.0859
2023-05-21T13:00:21.107Z,48.8721
2023-05-21T13:01:23.167Z,48.9611
2023-05-21T13:02:25.243Z,48.8010
2023-05-21T13:03:27.248Z,49.0894
2023-05-21T13:04:29.308Z,49.1689
2023-05-21T13:05:31.327Z,49.4004
2023-05-21T13:06:33.388Z,49.5899
2023-05-21T13:07:35.417Z,49.6036
2023-05-21T13:08:37.489Z,49.6432
2023-05-21T13:09:39.513Z,49.7246
2023-05-21T13:10:41.565Z,49.8804
2023-05-21T13:11:43.658Z,49.9485
2023-05-21T13:12:45.700Z,49.9973
2023-05-21T13:13:47.727Z,50.3987
2023-05-21T13:14:49.773Z,50.3122
2023-05-21T13:15:51.802Z,50.8411
2023-05-21T13:16:53.869Z,50.7345
2023-05-21T13:17:56.948Z,50.7409
2023-05-21T13:18:58.031Z,50.8200
2023-05-21T13:20:00.005Z,50.6848
2023-05-21T13:21:02.021Z,50.5568
2023-05-21T13:22:04.097Z,50.5061
2023-05-21T13:23:07.263Z,50.5364
2023-05-21T13:24:08.170Z,50.7484
2023-05-21T13:25:10.235Z,50.9652
2023-05-21T13:26:12.283Z,50.7406
2023-05-21T13:27:14.330Z,50.9842
2023-05-21T13:28:16.359Z,50.7375
2023-05-21T13:29:18.437Z,50.7917
2023-05-21T13:30:20.486Z,50.4977
2023-05-21T13:31:22.492Z,50.7390
2023-05-21T13:32:24.622Z,50.4210
2023-05-21T13:33:26.801Z,50.1910
2023-05-21T13:34:28.637Z,50.2222
2023-05-21T13:35:31.177Z,50.9250
2023-05-21T13:36:32.725Z,50.8126
2023-05-21T13:37:34.765Z,50.5967
2023-05-21T13:38:36.823Z,50.7937
2023-05-21T13:39:38.897Z,51.0654
2023-05-21T13:40:41.102Z,51.2194
2023-05-21T13:41:43.044Z,51.3684
2023-05-21T13:42:45.200Z,51.3184
2023-05-21T13:43:47.117Z,51.0395
2023-05-21T13:44:49.194Z,50.7736
2023-05-21T13:45:51.228Z,50.8775
2023-05-21T13:46:53.353Z,51.1897
2023-05-21T13:47:55.363Z,51.0054
2023-05-21T13:48:57.348Z,50.5923
2023-05-21T13:49:59.412Z,50.5412
2023-05-21T13:51:01.446Z,50.2017
2023-05-21T13:52:03.579Z,49.9607
2023-05-21T13:53:05.485Z,50.0161
2023-05-21T13:54:07.544Z,50.0972
2023-05-21T13:55:09.574Z,49.3204
2023-05-21T13:56:11.637Z,49.2234
2023-05-21T13:57:13.694Z,49.1457
2023-05-21T13:58:15.746Z,48.5206
2023-05-21T13:59:17.763Z,48.6160
2023-05-21T14:00:19.831Z,48.4837
2023-05-21T14:01:21.926Z,49.1719
2023-05-21T14:02:24.042Z,48.9091
2023-05-21T14:03:26.010Z,47.9633
2023-05-21T14:04:28.007Z,47.3095
2023-05-21T14:05:30.021Z,47.3215
2023-05-21T14:06:32.101Z,47.1576
2023-05-21T14:07:34.170Z,47.3998
2023-05-21T14:08:36.214Z,47.5138
2023-05-21T14:09:38.240Z,47.6078
2023-05-21T14:10:40.308Z,47.5577
2023-05-21T14:11:42.404Z,47.7424
2023-05-21T14:12:44.343Z,47.7580
2023-05-21T14:13:46.397Z,48.2384
2023-05-21T14:14:48.498Z,48.6234
2023-05-21T14:15:50.524Z,48.4543
2023-05-21T14:16:52.873Z,47.9580
2023-05-21T14:17:54.782Z,47.8857
2023-05-21T14:18:56.687Z,47.7607
2023-05-21T14:19:58.747Z,48.1044
2023-05-21T14:21:00.764Z,47.6929
2023-05-21T14:22:02.781Z,47.2628
2023-05-21T14:23:04.832Z,47.9173
2023-05-21T14:24:07.016Z,47.8668
2023-05-21T14:25:08.968Z,47.1407
2023-05-21T14:26:11.011Z,46.9392
2023-05-21T14:27:15.273Z,46.2612
2023-05-21T14:28:15.138Z,45.3403
2023-05-21T14:29:17.054Z,45.1940
2023-05-21T14:30:19.116Z,45.0951
2023-05-21T14:31:21.154Z,45.2106
2023-05-21T14:32:23.449Z,45.1258
2023-05-21T14:33:25.270Z,45.0150
2023-05-21T14:34:27.290Z,44.7926
2023-05-21T14:35:29.396Z,44.8126
2023-05-21T14:36:31.543Z,44.9458
2023-05-21T14:37:33.474Z,44.8477
2023-05-21T14:38:35.448Z,44.6436
2023-05-21T14:39:37.507Z,44.6825
2023-05-21T14:40:39.636Z,44.6737
2023-05-21T14:41:41.627Z,44.7073
2023-05-21T14:42:43.681Z,45.0524
2023-05-21T14:43:45.685Z,45.1312
2023-05-21T14:44:47.751Z,44.7776
2023-05-21T14:45:49.786Z,44.6159
2023-05-21T14:46:51.852Z,44.8316
2023-05-21T14:47:53.940Z,44.5563
2023-05-21T14:48:55.912Z,43.7047
2023-05-21T14:49:58.074Z,43.7329
2023-05-21T14:51:00.072Z,43.9783
2023-05-21T14:52:02.050Z,43.8376
2023-05-21T14:53:04.146Z,43.6219
2023-05-21T14:54:06.129Z,43.0027
2023-05-21T14:55:08.152Z,42.6833
2023-05-21T14:56:10.259Z,43.2607
2023-05-21T14:57:12.355Z,44.0000
2023-05-21T14:58:14.773Z,43.2191
2023-05-21T14:59:16.358Z,43.0865
2023-05-21T15:00:18.420Z,43.0090
2023-05-21T15:01:20.480Z,42.7930
2023-05-21T15:02:22.559Z,42.4467
2023-05-21T15:03:24.710Z,42.7650
2023-05-21T15:04:26.686Z,43.6726
2023-05-21T15:05:28.653Z,44.1052
2023-05-21T15:06:30.696Z,43.0731
2023-05-21T15:07:32.712Z,43.4019
2023-05-21T15:08:34.850Z,43.8447
2023-05-21T15:09:36.817Z,43.6634
2023-05-21T15:10:38.911Z,44.2565
2023-05-21T15:11:40.915Z,44.3782
2023-05-21T15:12:43.032Z,44.9821
2023-05-21T15:13:44.994Z,45.2075
2023-05-21T15:14:47.021Z,45.0508
2023-05-21T15:15:49.114Z,45.4707
2023-05-21T15:16:51.249Z,45.7309
2023-05-21T15:17:53.211Z,45.7309
2023-05-21T15:18:55.238Z,45.7245
2023-05-21T15:19:57.295Z,45.9231
2023-05-21T15:20:59.339Z,45.8608
2023-05-21T15:22:01.405Z,45.6201
2023-05-21T15:24:05.452Z,46.0719
2023-05-21T15:25:07.540Z,45.7210
2023-05-21T15:26:09.554Z,45.2383
2023-05-21T15:27:11.615Z,45.2734
2023-05-21T15:28:13.665Z,45.3477
2023-05-21T15:29:15.708Z,45.8213
2023-05-21T15:30:17.745Z,46.4086
2023-05-21T15:31:19.789Z,46.0594
2023-05-21T15:32:21.920Z,45.6565
2023-05-21T15:33:23.896Z,45.4714
2023-05-21T15:34:25.958Z,45.2728
2023-05-21T15:35:28.148Z,44.7932
2023-05-21T15:36:30.007Z,44.5451
2023-05-21T15:37:32.118Z,44.3427
2023-05-21T15:38:34.133Z,44.1997
2023-05-21T15:39:36.173Z,43.9770
2023-05-21T15:40:38.233Z,43.7418
2023-05-21T15:41:40.280Z,43.5886
2023-05-21T15:42:42.288Z,43.2499
2023-05-21T15:43:44.328Z,43.0215
2023-05-21T15:44:46.449Z,42.9177
2023-05-21T15:45:48.448Z,43.0129
2023-05-21T15:46:50.524Z,42.9851
2023-05-21T15:47:52.669Z,42.8834
2023-05-21T15:48:54.580Z,43.0439
2023-05-21T15:49:56.639Z,43.3677
2023-05-21T15:50:58.655Z,43.4371
2023-05-21T15:52:00.693Z,43.5507
2023-05-21T15:53:02.758Z,43.3347
2023-05-21T15:54:04.785Z,43.4614
2023-05-21T15:55:06.832Z,43.6656
2023-05-21T15:56:08.871Z,43.7495
2023-05-21T15:57:10.951Z,43.9081
2023-05-21T15:58:13.003Z,43.9548
2023-05-21T15:59:15.042Z,43.9290
